General Aviation Weather

Text Reports

Enter one or more of the following location identifiers separated by a space:

Zip Code, Four-Character ICAO or Three-Character IATA airport codes.

METAR - Aviation Routine Weather Report
KLEW - Auburn-Lewiston, Maine
Updated at 2:15 AM GMT on December 25, 2014 (9:15 PM EST):
METAR KLEW 250215Z AUTO 01005KT 3SM OVC004 02/01 A2967 RMK AO1 P0006
TAF - Terminal Area Forecast
KLEW - Auburn-Lewiston, Maine
Updated at 2:15 AM GMT on December 25, 2014 (9:15 PM EST):
No TAF is currently available for this location.
Decoded:
No decoded TAF is available.
PIREP - Pilot Weather Report
KLEW - Auburn-Lewiston, Maine
Updated at 2:15 AM GMT on December 25, 2014 (9:15 PM EST):
No PIREP is currently available for this location.
AIRMET - Airmens Meteorological Information
KLEW - Auburn-Lewiston, Maine
Updated at 2:15 AM GMT on December 25, 2014 (9:15 PM EST):
No AIRMET is currently available for this location.
SIGMET - Significant Meteorological Information
KLEW - Auburn-Lewiston, Maine
Updated at 2:15 AM GMT on December 25, 2014 (9:15 PM EST):
No SIGMET is currently available for this location.
NOTAM - Notice to Airmen
KLEW - Auburn-Lewiston, Maine
Updated at 2:15 AM GMT on December 25, 2014 (9:15 PM EST):
No NOTAM is currently available for this location.
Forecast Area
KLEW - Auburn-Lewiston, Maine
Updated at 2:15 AM GMT on December 25, 2014 (9:15 PM EST):
No NOTAM is currently available for this location.
Aviation Weather Maps